sensor_id;sensor_type;location;lat;lon;timestamp;P1;durP1;ratioP1;P2;durP2;ratioP2
59492;SDS011;45497;43.996;22.876;2022-07-23T00:00:14;5.95;;;3.50;;
59492;SDS011;45497;43.996;22.876;2022-07-23T00:04:46;7.20;;;3.50;;
59492;SDS011;45497;43.996;22.876;2022-07-23T00:07:11;6.60;;;3.10;;
59492;SDS011;45497;43.996;22.876;2022-07-23T00:09:37;4.20;;;3.00;;
59492;SDS011;45497;43.996;22.876;2022-07-23T00:12:03;6.40;;;3.50;;
59492;SDS011;45497;43.996;22.876;2022-07-23T00:14:29;5.75;;;3.30;;
59492;SDS011;45497;43.996;22.876;2022-07-23T00:16:55;6.43;;;3.43;;
59492;SDS011;45497;43.996;22.876;2022-07-23T00:23:47;6.70;;;3.28;;
59492;SDS011;45497;43.996;22.876;2022-07-23T00:26:13;5.27;;;3.57;;
59492;SDS011;45497;43.996;22.876;2022-07-23T00:29:57;6.70;;;3.40;;
59492;SDS011;45497;43.996;22.876;2022-07-23T00:32:54;6.90;;;3.28;;
59492;SDS011;45497;43.996;22.876;2022-07-23T00:35:24;4.35;;;3.00;;
59492;SDS011;45497;43.996;22.876;2022-07-23T00:37:51;7.28;;;3.33;;
59492;SDS011;45497;43.996;22.876;2022-07-23T00:40:16;7.40;;;3.40;;
59492;SDS011;45497;43.996;22.876;2022-07-23T00:42:42;5.93;;;3.50;;
59492;SDS011;45497;43.996;22.876;2022-07-23T00:45:08;5.43;;;3.40;;
59492;SDS011;45497;43.996;22.876;2022-07-23T00:47:34;7.03;;;3.38;;
59492;SDS011;45497;43.996;22.876;2022-07-23T00:50:19;5.47;;;3.20;;
59492;SDS011;45497;43.996;22.876;2022-07-23T00:52:45;9.40;;;3.40;;
59492;SDS011;45497;43.996;22.876;2022-07-23T00:55:11;8.73;;;4.05;;
59492;SDS011;45497;43.996;22.876;2022-07-23T00:57:38;6.70;;;3.97;;
59492;SDS011;45497;43.996;22.876;2022-07-23T01:00:05;6.78;;;3.65;;
59492;SDS011;45497;43.996;22.876;2022-07-23T01:02:33;6.87;;;3.93;;
59492;SDS011;45497;43.996;22.876;2022-07-23T01:04:58;6.88;;;3.60;;
59492;SDS011;45497;43.996;22.876;2022-07-23T01:07:24;8.73;;;3.60;;
59492;SDS011;45497;43.996;22.876;2022-07-23T01:11:56;4.32;;;3.25;;
59492;SDS011;45497;43.996;22.876;2022-07-23T01:14:22;8.98;;;3.72;;
59492;SDS011;45497;43.996;22.876;2022-07-23T01:16:48;7.53;;;3.58;;
59492;SDS011;45497;43.996;22.876;2022-07-23T01:19:14;9.15;;;4.00;;
59492;SDS011;45497;43.996;22.876;2022-07-23T01:22:56;7.43;;;3.60;;
59492;SDS011;45497;43.996;22.876;2022-07-23T01:25:22;6.97;;;3.30;;
59492;SDS011;45497;43.996;22.876;2022-07-23T01:27:48;9.10;;;3.70;;
59492;SDS011;45497;43.996;22.876;2022-07-23T01:30:14;7.63;;;3.88;;
59492;SDS011;45497;43.996;22.876;2022-07-23T01:32:40;9.30;;;3.60;;
59492;SDS011;45497;43.996;22.876;2022-07-23T01:35:06;6.32;;;3.60;;
59492;SDS011;45497;43.996;22.876;2022-07-23T01:37:32;7.40;;;3.65;;
59492;SDS011;45497;43.996;22.876;2022-07-23T01:39:58;7.10;;;3.77;;
59492;SDS011;45497;43.996;22.876;2022-07-23T01:42:24;5.18;;;3.25;;
59492;SDS011;45497;43.996;22.876;2022-07-23T01:44:50;10.45;;;4.00;;
59492;SDS011;45497;43.996;22.876;2022-07-23T01:47:16;6.50;;;3.47;;
59492;SDS011;45497;43.996;22.876;2022-07-23T01:49:41;6.95;;;3.60;;
59492;SDS011;45497;43.996;22.876;2022-07-23T01:52:07;6.80;;;3.40;;
59492;SDS011;45497;43.996;22.876;2022-07-23T01:54:36;5.47;;;3.80;;
59492;SDS011;45497;43.996;22.876;2022-07-23T01:57:03;6.75;;;3.33;;
59492;SDS011;45497;43.996;22.876;2022-07-23T01:59:29;8.53;;;3.60;;
59492;SDS011;45497;43.996;22.876;2022-07-23T02:01:55;5.75;;;3.55;;
59492;SDS011;45497;43.996;22.876;2022-07-23T02:05:33;5.07;;;3.50;;
59492;SDS011;45497;43.996;22.876;2022-07-23T02:07:59;6.17;;;3.60;;
59492;SDS011;45497;43.996;22.876;2022-07-23T02:10:25;7.10;;;3.72;;
59492;SDS011;45497;43.996;22.876;2022-07-23T02:12:52;7.60;;;3.75;;
59492;SDS011;45497;43.996;22.876;2022-07-23T02:15:18;8.15;;;3.50;;
59492;SDS011;45497;43.996;22.876;2022-07-23T02:17:44;10.63;;;3.95;;
59492;SDS011;45497;43.996;22.876;2022-07-23T02:20:10;5.70;;;3.53;;
59492;SDS011;45497;43.996;22.876;2022-07-23T02:22:36;5.80;;;3.43;;
59492;SDS011;45497;43.996;22.876;2022-07-23T02:25:06;6.10;;;3.50;;
59492;SDS011;45497;43.996;22.876;2022-07-23T02:27:32;6.30;;;3.50;;
59492;SDS011;45497;43.996;22.876;2022-07-23T02:29:58;9.37;;;3.60;;
59492;SDS011;45497;43.996;22.876;2022-07-23T02:32:24;7.13;;;3.58;;
59492;SDS011;45497;43.996;22.876;2022-07-23T02:34:50;6.60;;;3.57;;
59492;SDS011;45497;43.996;22.876;2022-07-23T02:37:16;7.80;;;3.67;;
59492;SDS011;45497;43.996;22.876;2022-07-23T02:41:49;7.00;;;3.80;;
59492;SDS011;45497;43.996;22.876;2022-07-23T02:44:15;7.33;;;3.80;;
59492;SDS011;45497;43.996;22.876;2022-07-23T02:46:40;8.97;;;3.67;;
59492;SDS011;45497;43.996;22.876;2022-07-23T02:49:06;7.93;;;4.07;;
59492;SDS011;45497;43.996;22.876;2022-07-23T02:51:31;7.60;;;4.30;;
59492;SDS011;45497;43.996;22.876;2022-07-23T02:53:57;7.43;;;3.80;;
59492;SDS011;45497;43.996;22.876;2022-07-23T02:56:22;6.30;;;4.00;;
59492;SDS011;45497;43.996;22.876;2022-07-23T02:58:48;7.67;;;4.03;;
59492;SDS011;45497;43.996;22.876;2022-07-23T03:01:13;7.68;;;4.35;;
59492;SDS011;45497;43.996;22.876;2022-07-23T03:03:39;9.90;;;4.60;;
59492;SDS011;45497;43.996;22.876;2022-07-23T03:06:04;8.33;;;4.60;;
59492;SDS011;45497;43.996;22.876;2022-07-23T03:08:30;9.43;;;5.07;;
59492;SDS011;45497;43.996;22.876;2022-07-23T03:10:55;12.52;;;4.97;;
59492;SDS011;45497;43.996;22.876;2022-07-23T03:13:21;12.00;;;5.20;;
59492;SDS011;45497;43.996;22.876;2022-07-23T03:15:46;10.93;;;5.50;;
59492;SDS011;45497;43.996;22.876;2022-07-23T03:18:12;11.00;;;5.47;;
59492;SDS011;45497;43.996;22.876;2022-07-23T03:20:37;8.63;;;5.32;;
59492;SDS011;45497;43.996;22.876;2022-07-23T03:23:03;12.93;;;5.60;;
59492;SDS011;45497;43.996;22.876;2022-07-23T03:25:28;10.70;;;5.50;;
59492;SDS011;45497;43.996;22.876;2022-07-23T03:27:54;12.07;;;5.10;;
59492;SDS011;45497;43.996;22.876;2022-07-23T03:30:19;11.32;;;5.55;;
59492;SDS011;45497;43.996;22.876;2022-07-23T03:32:45;11.27;;;5.67;;
59492;SDS011;45497;43.996;22.876;2022-07-23T03:35:10;10.70;;;5.20;;
59492;SDS011;45497;43.996;22.876;2022-07-23T03:37:36;12.90;;;5.67;;
59492;SDS011;45497;43.996;22.876;2022-07-23T03:40:02;9.85;;;5.78;;
59492;SDS011;45497;43.996;22.876;2022-07-23T03:42:27;9.57;;;5.33;;
59492;SDS011;45497;43.996;22.876;2022-07-23T03:44:53;12.80;;;5.43;;
59492;SDS011;45497;43.996;22.876;2022-07-23T03:47:18;13.07;;;5.78;;
59492;SDS011;45497;43.996;22.876;2022-07-23T03:49:47;15.70;;;6.22;;
59492;SDS011;45497;43.996;22.876;2022-07-23T03:52:13;9.95;;;5.85;;
59492;SDS011;45497;43.996;22.876;2022-07-23T03:54:39;10.40;;;5.43;;
59492;SDS011;45497;43.996;22.876;2022-07-23T03:57:04;11.63;;;5.57;;
59492;SDS011;45497;43.996;22.876;2022-07-23T03:59:30;11.70;;;5.40;;
59492;SDS011;45497;43.996;22.876;2022-07-23T04:01:55;14.20;;;6.00;;
59492;SDS011;45497;43.996;22.876;2022-07-23T04:04:21;11.43;;;5.63;;
59492;SDS011;45497;43.996;22.876;2022-07-23T04:06:46;14.90;;;5.63;;
59492;SDS011;45497;43.996;22.876;2022-07-23T04:09:12;9.73;;;5.22;;
59492;SDS011;45497;43.996;22.876;2022-07-23T04:11:38;14.23;;;7.05;;
59492;SDS011;45497;43.996;22.876;2022-07-23T04:14:04;17.63;;;8.15;;
59492;SDS011;45497;43.996;22.876;2022-07-23T04:16:29;16.83;;;9.40;;
59492;SDS011;45497;43.996;22.876;2022-07-23T04:18:56;15.25;;;9.25;;
59492;SDS011;45497;43.996;22.876;2022-07-23T04:21:23;13.35;;;6.47;;
59492;SDS011;45497;43.996;22.876;2022-07-23T04:23:48;9.05;;;5.45;;
59492;SDS011;45497;43.996;22.876;2022-07-23T04:26:15;7.53;;;5.03;;
59492;SDS011;45497;43.996;22.876;2022-07-23T04:28:41;9.23;;;5.30;;
59492;SDS011;45497;43.996;22.876;2022-07-23T04:31:07;10.27;;;5.10;;
59492;SDS011;45497;43.996;22.876;2022-07-23T04:33:33;7.25;;;4.70;;
59492;SDS011;45497;43.996;22.876;2022-07-23T04:35:58;9.23;;;5.37;;
59492;SDS011;45497;43.996;22.876;2022-07-23T04:38:24;12.83;;;5.50;;
59492;SDS011;45497;43.996;22.876;2022-07-23T04:40:49;12.77;;;5.23;;
59492;SDS011;45497;43.996;22.876;2022-07-23T04:43:15;10.10;;;4.90;;
59492;SDS011;45497;43.996;22.876;2022-07-23T04:45:41;10.05;;;4.88;;
59492;SDS011;45497;43.996;22.876;2022-07-23T04:48:06;8.90;;;4.73;;
59492;SDS011;45497;43.996;22.876;2022-07-23T04:50:32;6.30;;;5.30;;
59492;SDS011;45497;43.996;22.876;2022-07-23T04:52:57;8.27;;;4.80;;
59492;SDS011;45497;43.996;22.876;2022-07-23T04:55:23;15.60;;;5.67;;
59492;SDS011;45497;43.996;22.876;2022-07-23T04:57:48;12.47;;;5.27;;
59492;SDS011;45497;43.996;22.876;2022-07-23T05:00:14;11.07;;;6.40;;
59492;SDS011;45497;43.996;22.876;2022-07-23T05:02:40;11.60;;;7.63;;
59492;SDS011;45497;43.996;22.876;2022-07-23T05:05:05;12.93;;;8.80;;
59492;SDS011;45497;43.996;22.876;2022-07-23T05:07:31;16.80;;;9.50;;
59492;SDS011;45497;43.996;22.876;2022-07-23T05:09:57;12.67;;;8.60;;
59492;SDS011;45497;43.996;22.876;2022-07-23T05:12:22;41.80;;;11.20;;
59492;SDS011;45497;43.996;22.876;2022-07-23T05:14:48;15.07;;;9.07;;
59492;SDS011;45497;43.996;22.876;2022-07-23T05:17:13;13.18;;;7.97;;
59492;SDS011;45497;43.996;22.876;2022-07-23T05:19:38;12.30;;;7.67;;
59492;SDS011;45497;43.996;22.876;2022-07-23T05:22:04;12.83;;;7.10;;
59492;SDS011;45497;43.996;22.876;2022-07-23T05:24:29;12.95;;;7.45;;
59492;SDS011;45497;43.996;22.876;2022-07-23T05:26:55;12.70;;;6.60;;
59492;SDS011;45497;43.996;22.876;2022-07-23T05:29:20;9.33;;;6.90;;
59492;SDS011;45497;43.996;22.876;2022-07-23T05:31:46;12.30;;;7.30;;
59492;SDS011;45497;43.996;22.876;2022-07-23T05:34:11;10.77;;;7.00;;
59492;SDS011;45497;43.996;22.876;2022-07-23T05:36:37;9.60;;;6.57;;
59492;SDS011;45497;43.996;22.876;2022-07-23T05:39:03;12.38;;;8.48;;
59492;SDS011;45497;43.996;22.876;2022-07-23T05:41:29;11.77;;;8.88;;
59492;SDS011;45497;43.996;22.876;2022-07-23T05:43:54;13.07;;;6.90;;
59492;SDS011;45497;43.996;22.876;2022-07-23T05:46:20;12.73;;;6.90;;
59492;SDS011;45497;43.996;22.876;2022-07-23T05:48:45;10.85;;;6.68;;
59492;SDS011;45497;43.996;22.876;2022-07-23T05:51:18;10.07;;;6.75;;
59492;SDS011;45497;43.996;22.876;2022-07-23T05:53:44;10.20;;;6.75;;
59492;SDS011;45497;43.996;22.876;2022-07-23T05:56:10;8.83;;;5.80;;
59492;SDS011;45497;43.996;22.876;2022-07-23T05:58:35;11.10;;;6.40;;
59492;SDS011;45497;43.996;22.876;2022-07-23T06:01:01;9.30;;;5.27;;
59492;SDS011;45497;43.996;22.876;2022-07-23T06:03:26;6.85;;;5.28;;
59492;SDS011;45497;43.996;22.876;2022-07-23T06:05:52;9.77;;;5.33;;
59492;SDS011;45497;43.996;22.876;2022-07-23T06:08:17;7.15;;;5.60;;
59492;SDS011;45497;43.996;22.876;2022-07-23T06:10:43;10.23;;;5.70;;
59492;SDS011;45497;43.996;22.876;2022-07-23T06:13:08;6.28;;;5.45;;
59492;SDS011;45497;43.996;22.876;2022-07-23T06:15:34;7.93;;;5.17;;
59492;SDS011;45497;43.996;22.876;2022-07-23T06:17:59;11.25;;;5.80;;
59492;SDS011;45497;43.996;22.876;2022-07-23T06:20:25;9.03;;;5.60;;
59492;SDS011;45497;43.996;22.876;2022-07-23T06:22:50;8.53;;;6.40;;
59492;SDS011;45497;43.996;22.876;2022-07-23T06:25:16;10.87;;;7.53;;
59492;SDS011;45497;43.996;22.876;2022-07-23T06:27:41;10.27;;;7.60;;
59492;SDS011;45497;43.996;22.876;2022-07-23T06:30:07;11.40;;;7.40;;
59492;SDS011;45497;43.996;22.876;2022-07-23T06:32:33;8.05;;;7.07;;
59492;SDS011;45497;43.996;22.876;2022-07-23T06:34:58;9.73;;;7.10;;
59492;SDS011;45497;43.996;22.876;2022-07-23T06:37:24;9.97;;;6.90;;
59492;SDS011;45497;43.996;22.876;2022-07-23T06:39:49;10.70;;;6.13;;
59492;SDS011;45497;43.996;22.876;2022-07-23T06:42:15;10.65;;;6.85;;
59492;SDS011;45497;43.996;22.876;2022-07-23T06:44:40;10.63;;;7.17;;
59492;SDS011;45497;43.996;22.876;2022-07-23T06:47:06;9.35;;;6.13;;
59492;SDS011;45497;43.996;22.876;2022-07-23T06:49:32;8.43;;;6.53;;
59492;SDS011;45497;43.996;22.876;2022-07-23T06:51:58;7.80;;;6.70;;
59492;SDS011;45497;43.996;22.876;2022-07-23T06:54:23;9.32;;;6.32;;
59492;SDS011;45497;43.996;22.876;2022-07-23T06:56:48;11.67;;;6.87;;
59492;SDS011;45497;43.996;22.876;2022-07-23T06:59:14;9.70;;;6.63;;
59492;SDS011;45497;43.996;22.876;2022-07-23T07:01:40;9.67;;;6.83;;
59492;SDS011;45497;43.996;22.876;2022-07-23T07:04:06;16.33;;;7.43;;
59492;SDS011;45497;43.996;22.876;2022-07-23T07:06:32;8.23;;;6.37;;
59492;SDS011;45497;43.996;22.876;2022-07-23T07:08:57;8.90;;;6.70;;
59492;SDS011;45497;43.996;22.876;2022-07-23T07:11:23;11.60;;;6.50;;
59492;SDS011;45497;43.996;22.876;2022-07-23T07:13:50;12.48;;;6.15;;
59492;SDS011;45497;43.996;22.876;2022-07-23T07:16:16;10.80;;;6.13;;
59492;SDS011;45497;43.996;22.876;2022-07-23T07:18:42;11.33;;;5.83;;
59492;SDS011;45497;43.996;22.876;2022-07-23T07:21:07;11.73;;;5.80;;
59492;SDS011;45497;43.996;22.876;2022-07-23T07:23:33;9.38;;;5.93;;
59492;SDS011;45497;43.996;22.876;2022-07-23T07:25:58;11.17;;;5.80;;
59492;SDS011;45497;43.996;22.876;2022-07-23T07:28:24;11.30;;;5.57;;
59492;SDS011;45497;43.996;22.876;2022-07-23T07:30:49;10.98;;;5.38;;
59492;SDS011;45497;43.996;22.876;2022-07-23T07:33:15;11.63;;;5.50;;
59492;SDS011;45497;43.996;22.876;2022-07-23T07:35:40;12.43;;;5.50;;
59492;SDS011;45497;43.996;22.876;2022-07-23T07:38:06;10.37;;;5.20;;
59492;SDS011;45497;43.996;22.876;2022-07-23T07:40:31;11.97;;;5.20;;
59492;SDS011;45497;43.996;22.876;2022-07-23T07:42:57;10.73;;;5.43;;
59492;SDS011;45497;43.996;22.876;2022-07-23T07:45:23;9.48;;;5.40;;
59492;SDS011;45497;43.996;22.876;2022-07-23T07:47:51;7.63;;;5.30;;
59492;SDS011;45497;43.996;22.876;2022-07-23T07:50:17;9.45;;;5.05;;
59492;SDS011;45497;43.996;22.876;2022-07-23T07:52:44;11.30;;;5.28;;
59492;SDS011;45497;43.996;22.876;2022-07-23T07:55:10;10.93;;;5.30;;
59492;SDS011;45497;43.996;22.876;2022-07-23T07:57:36;11.55;;;5.35;;
59492;SDS011;45497;43.996;22.876;2022-07-23T08:00:02;8.33;;;5.17;;
59492;SDS011;45497;43.996;22.876;2022-07-23T08:02:29;9.75;;;5.38;;
59492;SDS011;45497;43.996;22.876;2022-07-23T08:05:04;9.27;;;5.25;;
59492;SDS011;45497;43.996;22.876;2022-07-23T08:07:29;8.83;;;5.50;;
59492;SDS011;45497;43.996;22.876;2022-07-23T08:09:55;10.88;;;5.28;;
59492;SDS011;45497;43.996;22.876;2022-07-23T08:12:21;10.35;;;4.95;;
59492;SDS011;45497;43.996;22.876;2022-07-23T08:14:46;7.70;;;4.55;;
59492;SDS011;45497;43.996;22.876;2022-07-23T08:17:12;13.50;;;5.22;;
59492;SDS011;45497;43.996;22.876;2022-07-23T08:19:37;9.87;;;5.13;;
59492;SDS011;45497;43.996;22.876;2022-07-23T08:22:03;7.27;;;5.20;;
59492;SDS011;45497;43.996;22.876;2022-07-23T08:24:28;8.73;;;5.23;;
59492;SDS011;45497;43.996;22.876;2022-07-23T08:26:54;10.10;;;5.20;;
59492;SDS011;45497;43.996;22.876;2022-07-23T08:29:19;8.97;;;5.07;;
59492;SDS011;45497;43.996;22.876;2022-07-23T08:31:44;8.93;;;4.43;;
59492;SDS011;45497;43.996;22.876;2022-07-23T08:34:10;9.87;;;5.00;;
59492;SDS011;45497;43.996;22.876;2022-07-23T08:36:36;8.13;;;4.70;;
59492;SDS011;45497;43.996;22.876;2022-07-23T08:39:02;8.83;;;4.60;;
59492;SDS011;45497;43.996;22.876;2022-07-23T08:41:28;7.38;;;4.38;;
59492;SDS011;45497;43.996;22.876;2022-07-23T08:43:54;8.82;;;4.40;;
59492;SDS011;45497;43.996;22.876;2022-07-23T08:46:24;9.07;;;4.28;;
59492;SDS011;45497;43.996;22.876;2022-07-23T08:48:50;9.70;;;4.72;;
59492;SDS011;45497;43.996;22.876;2022-07-23T08:51:15;6.10;;;4.03;;
59492;SDS011;45497;43.996;22.876;2022-07-23T08:53:43;6.63;;;3.97;;
59492;SDS011;45497;43.996;22.876;2022-07-23T08:56:11;8.07;;;4.13;;
59492;SDS011;45497;43.996;22.876;2022-07-23T08:58:36;11.43;;;4.47;;
59492;SDS011;45497;43.996;22.876;2022-07-23T09:01:02;8.90;;;4.00;;
59492;SDS011;45497;43.996;22.876;2022-07-23T09:03:29;6.87;;;4.40;;
59492;SDS011;45497;43.996;22.876;2022-07-23T09:06:00;8.38;;;4.50;;
59492;SDS011;45497;43.996;22.876;2022-07-23T09:08:40;7.32;;;4.07;;
59492;SDS011;45497;43.996;22.876;2022-07-23T09:11:08;7.55;;;4.03;;
59492;SDS011;45497;43.996;22.876;2022-07-23T09:13:51;8.48;;;4.45;;
59492;SDS011;45497;43.996;22.876;2022-07-23T09:16:20;7.60;;;3.72;;
59492;SDS011;45497;43.996;22.876;2022-07-23T09:21:26;7.53;;;3.80;;
59492;SDS011;45497;43.996;22.876;2022-07-23T09:31:31;8.70;;;4.30;;
59492;SDS011;45497;43.996;22.876;2022-07-23T09:34:12;6.53;;;3.80;;
59492;SDS011;45497;43.996;22.876;2022-07-23T09:36:47;7.22;;;3.90;;
59492;SDS011;45497;43.996;22.876;2022-07-23T09:39:14;6.78;;;3.83;;
59492;SDS011;45497;43.996;22.876;2022-07-23T09:41:43;8.63;;;3.80;;
59492;SDS011;45497;43.996;22.876;2022-07-23T09:44:12;8.48;;;3.97;;
59492;SDS011;45497;43.996;22.876;2022-07-23T09:46:42;7.78;;;4.20;;
59492;SDS011;45497;43.996;22.876;2022-07-23T09:49:21;8.52;;;3.90;;
59492;SDS011;45497;43.996;22.876;2022-07-23T09:56:51;6.38;;;3.95;;
59492;SDS011;45497;43.996;22.876;2022-07-23T09:59:18;5.85;;;3.70;;
59492;SDS011;45497;43.996;22.876;2022-07-23T10:01:49;6.90;;;4.00;;
59492;SDS011;45497;43.996;22.876;2022-07-23T10:04:17;8.40;;;3.90;;
59492;SDS011;45497;43.996;22.876;2022-07-23T10:06:44;8.65;;;4.20;;
59492;SDS011;45497;43.996;22.876;2022-07-23T10:09:12;9.07;;;4.35;;
59492;SDS011;45497;43.996;22.876;2022-07-23T10:11:41;8.50;;;4.13;;
59492;SDS011;45497;43.996;22.876;2022-07-23T10:14:07;6.50;;;3.60;;
59492;SDS011;45497;43.996;22.876;2022-07-23T10:16:33;5.32;;;3.80;;
59492;SDS011;45497;43.996;22.876;2022-07-23T10:18:58;6.22;;;3.83;;
59492;SDS011;45497;43.996;22.876;2022-07-23T10:21:27;5.67;;;3.90;;
59492;SDS011;45497;43.996;22.876;2022-07-23T10:24:21;8.17;;;4.20;;
59492;SDS011;45497;43.996;22.876;2022-07-23T10:30:02;5.53;;;4.22;;
59492;SDS011;45497;43.996;22.876;2022-07-23T10:44:37;7.63;;;4.35;;
59492;SDS011;45497;43.996;22.876;2022-07-23T10:47:05;7.95;;;3.97;;
59492;SDS011;45497;43.996;22.876;2022-07-23T10:49:41;7.75;;;4.40;;
59492;SDS011;45497;43.996;22.876;2022-07-23T10:54:38;7.15;;;3.90;;
59492;SDS011;45497;43.996;22.876;2022-07-23T10:57:08;5.23;;;3.37;;
59492;SDS011;45497;43.996;22.876;2022-07-23T11:02:36;7.18;;;4.10;;
59492;SDS011;45497;43.996;22.876;2022-07-23T11:05:06;6.13;;;3.90;;
59492;SDS011;45497;43.996;22.876;2022-07-23T11:07:34;8.23;;;4.10;;
59492;SDS011;45497;43.996;22.876;2022-07-23T11:10:01;8.93;;;4.00;;
59492;SDS011;45497;43.996;22.876;2022-07-23T11:25:07;6.20;;;4.32;;
59492;SDS011;45497;43.996;22.876;2022-07-23T11:27:47;8.88;;;4.05;;
59492;SDS011;45497;43.996;22.876;2022-07-23T11:32:51;7.80;;;3.92;;
59492;SDS011;45497;43.996;22.876;2022-07-23T11:35:27;8.02;;;3.97;;
59492;SDS011;45497;43.996;22.876;2022-07-23T11:37:54;7.10;;;4.30;;
59492;SDS011;45497;43.996;22.876;2022-07-23T11:40:49;9.02;;;4.13;;
59492;SDS011;45497;43.996;22.876;2022-07-23T11:43:17;8.00;;;3.95;;
59492;SDS011;45497;43.996;22.876;2022-07-23T11:45:45;7.35;;;3.85;;
59492;SDS011;45497;43.996;22.876;2022-07-23T11:50:44;6.05;;;3.97;;
59492;SDS011;45497;43.996;22.876;2022-07-23T11:53:10;11.00;;;4.20;;
59492;SDS011;45497;43.996;22.876;2022-07-23T11:55:36;7.13;;;3.87;;
59492;SDS011;45497;43.996;22.876;2022-07-23T11:58:01;8.17;;;4.07;;
59492;SDS011;45497;43.996;22.876;2022-07-23T12:00:28;7.00;;;3.83;;
59492;SDS011;45497;43.996;22.876;2022-07-23T12:02:56;8.50;;;3.80;;
59492;SDS011;45497;43.996;22.876;2022-07-23T12:05:29;6.80;;;3.85;;
59492;SDS011;45497;43.996;22.876;2022-07-23T12:07:59;7.13;;;3.90;;
59492;SDS011;45497;43.996;22.876;2022-07-23T12:10:28;6.50;;;4.10;;
59492;SDS011;45497;43.996;22.876;2022-07-23T12:13:11;6.82;;;3.65;;
59492;SDS011;45497;43.996;22.876;2022-07-23T12:15:40;7.53;;;3.90;;
59492;SDS011;45497;43.996;22.876;2022-07-23T12:18:08;5.55;;;3.63;;
59492;SDS011;45497;43.996;22.876;2022-07-23T12:20:38;7.93;;;4.28;;
59492;SDS011;45497;43.996;22.876;2022-07-23T12:23:07;7.68;;;3.75;;
59492;SDS011;45497;43.996;22.876;2022-07-23T12:25:34;6.73;;;3.63;;
59492;SDS011;45497;43.996;22.876;2022-07-23T12:28:09;6.10;;;3.78;;
59492;SDS011;45497;43.996;22.876;2022-07-23T12:30:44;7.03;;;3.65;;
59492;SDS011;45497;43.996;22.876;2022-07-23T12:33:31;6.38;;;3.85;;
59492;SDS011;45497;43.996;22.876;2022-07-23T12:36:00;7.43;;;3.90;;
59492;SDS011;45497;43.996;22.876;2022-07-23T12:38:36;8.33;;;4.00;;
59492;SDS011;45497;43.996;22.876;2022-07-23T12:41:05;9.07;;;3.97;;
59492;SDS011;45497;43.996;22.876;2022-07-23T12:43:41;6.60;;;3.60;;
59492;SDS011;45497;43.996;22.876;2022-07-23T12:46:20;7.90;;;3.97;;
59492;SDS011;45497;43.996;22.876;2022-07-23T12:51:15;7.07;;;3.85;;
59492;SDS011;45497;43.996;22.876;2022-07-23T12:53:43;7.70;;;3.88;;
59492;SDS011;45497;43.996;22.876;2022-07-23T12:56:12;10.70;;;4.30;;
59492;SDS011;45497;43.996;22.876;2022-07-23T12:58:43;7.70;;;4.00;;
59492;SDS011;45497;43.996;22.876;2022-07-23T13:03:54;8.10;;;3.83;;
59492;SDS011;45497;43.996;22.876;2022-07-23T13:06:21;8.90;;;3.50;;
59492;SDS011;45497;43.996;22.876;2022-07-23T13:08:46;10.35;;;4.45;;
59492;SDS011;45497;43.996;22.876;2022-07-23T13:11:12;8.17;;;3.57;;
59492;SDS011;45497;43.996;22.876;2022-07-23T13:13:38;10.05;;;3.88;;
59492;SDS011;45497;43.996;22.876;2022-07-23T13:16:03;6.65;;;3.83;;
59492;SDS011;45497;43.996;22.876;2022-07-23T13:18:29;7.30;;;3.70;;
59492;SDS011;45497;43.996;22.876;2022-07-23T13:20:55;7.70;;;3.90;;
59492;SDS011;45497;43.996;22.876;2022-07-23T13:23:21;5.70;;;3.83;;
59492;SDS011;45497;43.996;22.876;2022-07-23T13:25:47;10.23;;;3.92;;
59492;SDS011;45497;43.996;22.876;2022-07-23T13:28:14;6.18;;;3.70;;
59492;SDS011;45497;43.996;22.876;2022-07-23T13:30:41;7.90;;;4.18;;
59492;SDS011;45497;43.996;22.876;2022-07-23T13:33:07;8.90;;;3.90;;
59492;SDS011;45497;43.996;22.876;2022-07-23T13:35:34;6.93;;;3.75;;
59492;SDS011;45497;43.996;22.876;2022-07-23T13:38:01;7.53;;;3.80;;
59492;SDS011;45497;43.996;22.876;2022-07-23T13:40:28;8.65;;;3.63;;
59492;SDS011;45497;43.996;22.876;2022-07-23T13:42:54;7.65;;;3.90;;
59492;SDS011;45497;43.996;22.876;2022-07-23T13:45:20;7.43;;;3.95;;
59492;SDS011;45497;43.996;22.876;2022-07-23T13:47:45;10.52;;;4.18;;
59492;SDS011;45497;43.996;22.876;2022-07-23T13:50:11;7.75;;;3.50;;
59492;SDS011;45497;43.996;22.876;2022-07-23T13:52:37;8.35;;;3.67;;
59492;SDS011;45497;43.996;22.876;2022-07-23T13:55:04;7.45;;;3.70;;
59492;SDS011;45497;43.996;22.876;2022-07-23T13:57:31;8.20;;;3.65;;
59492;SDS011;45497;43.996;22.876;2022-07-23T13:59:57;6.85;;;3.60;;
59492;SDS011;45497;43.996;22.876;2022-07-23T14:02:23;7.90;;;4.00;;
59492;SDS011;45497;43.996;22.876;2022-07-23T14:04:49;7.00;;;4.10;;
59492;SDS011;45497;43.996;22.876;2022-07-23T14:07:15;7.03;;;3.80;;
59492;SDS011;45497;43.996;22.876;2022-07-23T14:09:40;9.63;;;3.80;;
59492;SDS011;45497;43.996;22.876;2022-07-23T14:12:06;8.70;;;3.57;;
59492;SDS011;45497;43.996;22.876;2022-07-23T14:14:32;7.75;;;3.60;;
59492;SDS011;45497;43.996;22.876;2022-07-23T14:16:59;9.50;;;3.70;;
59492;SDS011;45497;43.996;22.876;2022-07-23T14:19:25;8.23;;;3.83;;
59492;SDS011;45497;43.996;22.876;2022-07-23T14:21:51;7.70;;;3.53;;
59492;SDS011;45497;43.996;22.876;2022-07-23T14:24:16;7.07;;;3.80;;
59492;SDS011;45497;43.996;22.876;2022-07-23T14:26:42;6.90;;;4.17;;
59492;SDS011;45497;43.996;22.876;2022-07-23T14:29:08;6.53;;;3.53;;
59492;SDS011;45497;43.996;22.876;2022-07-23T14:31:33;10.17;;;4.23;;
59492;SDS011;45497;43.996;22.876;2022-07-23T14:33:59;8.77;;;3.70;;
59492;SDS011;45497;43.996;22.876;2022-07-23T14:36:25;7.22;;;3.70;;
59492;SDS011;45497;43.996;22.876;2022-07-23T14:38:51;7.57;;;3.72;;
59492;SDS011;45497;43.996;22.876;2022-07-23T14:41:16;7.40;;;4.00;;
59492;SDS011;45497;43.996;22.876;2022-07-23T14:43:42;8.53;;;3.80;;
59492;SDS011;45497;43.996;22.876;2022-07-23T14:46:08;7.07;;;3.50;;
59492;SDS011;45497;43.996;22.876;2022-07-23T14:48:34;7.97;;;3.95;;
59492;SDS011;45497;43.996;22.876;2022-07-23T14:51:01;8.40;;;3.90;;
59492;SDS011;45497;43.996;22.876;2022-07-23T14:53:27;7.87;;;3.77;;
59492;SDS011;45497;43.996;22.876;2022-07-23T14:55:53;7.50;;;4.00;;
59492;SDS011;45497;43.996;22.876;2022-07-23T14:58:18;6.60;;;3.77;;
59492;SDS011;45497;43.996;22.876;2022-07-23T15:00:44;6.43;;;3.43;;
59492;SDS011;45497;43.996;22.876;2022-07-23T15:03:09;6.87;;;3.50;;
59492;SDS011;45497;43.996;22.876;2022-07-23T15:05:34;8.75;;;3.70;;
59492;SDS011;45497;43.996;22.876;2022-07-23T15:08:00;8.48;;;3.95;;
59492;SDS011;45497;43.996;22.876;2022-07-23T15:10:25;8.10;;;4.20;;
59492;SDS011;45497;43.996;22.876;2022-07-23T15:12:51;6.90;;;3.60;;
59492;SDS011;45497;43.996;22.876;2022-07-23T15:15:17;9.60;;;3.87;;
59492;SDS011;45497;43.996;22.876;2022-07-23T15:17:42;10.30;;;3.83;;
59492;SDS011;45497;43.996;22.876;2022-07-23T15:20:09;9.57;;;3.70;;
59492;SDS011;45497;43.996;22.876;2022-07-23T15:22:34;7.95;;;3.85;;
59492;SDS011;45497;43.996;22.876;2022-07-23T15:25:00;10.57;;;3.90;;
59492;SDS011;45497;43.996;22.876;2022-07-23T15:27:26;8.40;;;3.83;;
59492;SDS011;45497;43.996;22.876;2022-07-23T15:29:52;8.10;;;3.75;;
59492;SDS011;45497;43.996;22.876;2022-07-23T15:32:18;8.93;;;3.80;;
59492;SDS011;45497;43.996;22.876;2022-07-23T15:34:44;7.23;;;3.93;;
59492;SDS011;45497;43.996;22.876;2022-07-23T15:37:09;8.23;;;3.77;;
59492;SDS011;45497;43.996;22.876;2022-07-23T15:39:35;9.20;;;3.90;;
59492;SDS011;45497;43.996;22.876;2022-07-23T15:42:01;7.53;;;3.80;;